createdAt,value
2017-10-11T00:02:26.929Z,10.73
2017-10-11T00:04:54.473Z,10.52
2017-10-11T00:07:22.057Z,11.77
2017-10-11T00:09:49.598Z,11.20
2017-10-11T00:12:17.188Z,11.38
2017-10-11T00:14:46.939Z,11.30
2017-10-11T00:17:14.826Z,10.38
2017-10-11T00:19:42.362Z,11.50
2017-10-11T00:22:09.902Z,11.05
2017-10-11T00:24:37.482Z,11.50
2017-10-11T00:27:05.137Z,11.95
2017-10-11T00:29:32.717Z,11.77
2017-10-11T00:32:00.261Z,11.52
2017-10-11T00:34:28.257Z,11.18
2017-10-11T00:36:55.793Z,11.18
2017-10-11T00:39:23.382Z,13.20
2017-10-11T00:41:50.923Z,10.45
2017-10-11T00:44:18.466Z,11.75
2017-10-11T00:46:46.462Z,11.60
2017-10-11T00:49:14.010Z,11.68
2017-10-11T00:51:41.630Z,11.98
2017-10-11T00:54:10.581Z,11.10
2017-10-11T00:56:38.151Z,11.85
2017-10-11T00:59:05.698Z,10.38
2017-10-11T01:01:33.281Z,11.40
2017-10-11T01:04:00.818Z,10.30
2017-10-11T01:06:28.406Z,11.15
2017-10-11T01:08:55.946Z,9.88
2017-10-11T01:11:24.005Z,10.90
2017-10-11T01:13:51.686Z,10.45
2017-10-11T01:16:19.221Z,9.98
2017-10-11T01:18:46.810Z,10.38
2017-10-11T01:21:14.345Z,12.10
2017-10-11T01:23:41.926Z,11.35
2017-10-11T01:26:09.912Z,10.93
2017-10-11T01:28:38.625Z,10.57
2017-10-11T01:31:07.465Z,11.12
2017-10-11T01:33:35.011Z,10.55
2017-10-11T01:36:02.558Z,11.00
2017-10-11T01:38:30.199Z,11.15
2017-10-11T01:40:58.934Z,10.57
2017-10-11T01:43:26.478Z,11.55
2017-10-11T01:45:54.057Z,10.43
2017-10-11T01:48:21.598Z,10.52
2017-10-11T01:50:49.184Z,10.50
2017-10-11T01:53:16.725Z,10.40
2017-10-11T01:55:44.586Z,10.82
2017-10-11T01:58:12.131Z,11.35
2017-10-11T02:00:39.713Z,10.60
2017-10-11T02:03:07.249Z,11.00
2017-10-11T02:05:35.141Z,9.55
2017-10-11T02:08:02.689Z,10.65
2017-10-11T02:10:30.225Z,9.35
2017-10-11T02:12:58.265Z,9.25
2017-10-11T02:15:25.807Z,8.75
2017-10-11T02:17:53.353Z,9.52
2017-10-11T02:20:20.999Z,8.23
2017-10-11T02:22:48.534Z,8.73
2017-10-11T02:25:16.138Z,8.77
2017-10-11T02:27:43.890Z,8.63
2017-10-11T02:30:11.430Z,7.75
2017-10-11T02:32:39.207Z,7.18
2017-10-11T02:35:06.743Z,7.53
2017-10-11T02:37:34.332Z,7.50
2017-10-11T02:40:01.889Z,8.45
2017-10-11T02:42:29.779Z,8.00
2017-10-11T02:44:57.308Z,6.82
2017-10-11T02:47:24.849Z,7.55
2017-10-11T02:49:52.529Z,6.72
2017-10-11T02:52:20.073Z,7.00
2017-10-11T02:54:47.648Z,7.55
2017-10-11T02:57:15.193Z,7.40
2017-10-11T02:59:42.769Z,7.18
2017-10-11T03:02:10.307Z,7.30
2017-10-11T03:04:38.806Z,7.05
2017-10-11T03:07:06.343Z,6.75
2017-10-11T03:09:34.685Z,6.95
2017-10-11T03:12:02.217Z,6.80
2017-10-11T03:14:29.793Z,6.12
2017-10-11T03:16:57.329Z,6.95
2017-10-11T03:19:24.861Z,6.50
2017-10-11T03:21:53.814Z,6.03
2017-10-11T03:24:21.354Z,6.43
2017-10-11T03:26:48.890Z,6.30
2017-10-11T03:29:16.701Z,6.70
2017-10-11T03:31:44.276Z,6.15
2017-10-11T03:34:11.815Z,5.90
2017-10-11T03:36:39.393Z,6.12
2017-10-11T03:39:06.929Z,6.25
2017-10-11T03:41:34.542Z,5.53
2017-10-11T03:44:02.841Z,5.80
2017-10-11T03:46:30.383Z,6.60
2017-10-11T03:48:58.132Z,5.70
2017-10-11T03:51:25.662Z,5.70
2017-10-11T03:53:53.254Z,5.93
2017-10-11T03:56:21.564Z,6.18
2017-10-11T03:58:49.145Z,5.70
2017-10-11T04:01:16.678Z,5.55
2017-10-11T04:03:44.577Z,6.20
2017-10-11T04:06:12.121Z,5.72
2017-10-11T04:08:39.665Z,5.90
2017-10-11T04:11:07.875Z,5.12
2017-10-11T04:13:35.559Z,5.93
2017-10-11T04:16:03.093Z,6.20
2017-10-11T04:18:30.943Z,6.30
2017-10-11T04:20:58.478Z,5.35
2017-10-11T04:23:26.023Z,5.90
2017-10-11T04:25:54.625Z,5.78
2017-10-11T04:28:22.219Z,5.43
2017-10-11T04:30:49.749Z,6.07
2017-10-11T04:33:17.327Z,6.05
2017-10-11T04:35:44.874Z,6.25
2017-10-11T04:38:12.505Z,6.22
2017-10-11T04:40:40.806Z,6.25
2017-10-11T04:43:08.452Z,6.25
2017-10-11T04:45:36.754Z,6.35
2017-10-11T04:48:04.339Z,5.75
2017-10-11T04:50:31.875Z,6.10
2017-10-11T04:52:59.449Z,5.47
2017-10-11T04:55:26.982Z,5.85
2017-10-11T04:57:58.427Z,5.90
2017-10-11T05:00:26.726Z,5.93
2017-10-11T05:02:54.265Z,6.07
2017-10-11T05:05:25.860Z,6.28
2017-10-11T05:07:53.518Z,6.07
2017-10-11T05:10:21.049Z,6.40
2017-10-11T05:12:49.752Z,6.10
2017-10-11T05:15:17.346Z,6.82
2017-10-11T05:17:44.925Z,6.20
2017-10-11T05:20:12.680Z,6.25
2017-10-11T05:22:40.226Z,6.57
2017-10-11T05:25:07.848Z,6.47
2017-10-11T05:27:35.689Z,7.20
2017-10-11T05:30:03.994Z,7.32
2017-10-11T05:32:31.770Z,7.43
2017-10-11T05:34:59.362Z,7.62
2017-10-11T05:37:26.949Z,8.18
2017-10-11T05:39:55.254Z,8.52
2017-10-11T05:42:22.839Z,7.78
2017-10-11T05:44:50.841Z,7.43
2017-10-11T05:47:19.326Z,7.47
2017-10-11T05:49:47.661Z,16.65
2017-10-11T05:52:16.102Z,22.75
2017-10-11T05:54:44.029Z,39.47
2017-10-11T05:57:11.590Z,80.07
2017-10-11T05:59:39.137Z,59.72
2017-10-11T06:02:07.006Z,60.83
2017-10-11T06:04:34.545Z,22.65
2017-10-11T06:07:02.101Z,12.18
2017-10-11T06:09:29.966Z,11.90
2017-10-11T06:11:57.558Z,8.30
2017-10-11T06:14:25.490Z,36.47
2017-10-11T06:16:53.078Z,19.12
2017-10-11T06:19:20.622Z,13.80
2017-10-11T06:21:48.377Z,14.98
2017-10-11T06:24:15.917Z,41.08
2017-10-11T06:26:44.235Z,32.33
2017-10-11T06:29:12.105Z,17.65
2017-10-11T06:31:39.664Z,10.52
2017-10-11T06:34:07.201Z,7.53
2017-10-11T06:36:35.116Z,6.30
2017-10-11T06:39:02.665Z,23.92
2017-10-11T06:41:30.210Z,13.43
2017-10-11T06:43:57.878Z,22.15
2017-10-11T06:46:25.426Z,16.65
2017-10-11T06:48:52.974Z,15.88
2017-10-11T06:51:20.621Z,20.83
2017-10-11T06:53:48.943Z,11.10
2017-10-11T06:56:16.596Z,12.43
2017-10-11T06:58:44.152Z,9.90
2017-10-11T07:01:12.074Z,13.75
2017-10-11T07:03:39.691Z,20.25
2017-10-11T07:06:08.093Z,7.60
2017-10-11T07:08:35.683Z,14.65
2017-10-11T07:11:04.586Z,15.95
2017-10-11T07:13:32.135Z,9.02
2017-10-11T07:16:03.606Z,12.80
2017-10-11T07:18:31.322Z,11.25
2017-10-11T07:20:58.938Z,13.75
2017-10-11T07:23:26.878Z,8.05
2017-10-11T07:25:55.189Z,8.98
2017-10-11T07:28:22.729Z,8.32
2017-10-11T07:30:50.317Z,7.72
2017-10-11T07:33:19.110Z,17.20
2017-10-11T07:35:47.865Z,14.00
2017-10-11T07:38:15.409Z,7.60
2017-10-11T07:40:43.765Z,8.85
2017-10-11T07:43:12.461Z,8.77
2017-10-11T07:45:39.994Z,6.35
2017-10-11T07:48:07.542Z,11.35
2017-10-11T07:50:35.521Z,6.85
2017-10-11T07:53:03.068Z,5.75
2017-10-11T07:55:30.682Z,5.15
2017-10-11T07:57:59.017Z,5.53
2017-10-11T08:00:26.603Z,6.00
2017-10-11T08:02:54.151Z,5.35
2017-10-11T08:05:21.798Z,5.30
2017-10-11T08:07:49.343Z,5.00
2017-10-11T08:10:17.221Z,5.87
2017-10-11T08:12:44.770Z,5.25
2017-10-11T08:15:12.313Z,5.28
2017-10-11T08:17:40.217Z,5.18
2017-10-11T08:20:07.754Z,5.20
2017-10-11T08:22:35.442Z,4.65
2017-10-11T08:25:02.979Z,4.78
2017-10-11T08:27:31.058Z,5.18
2017-10-11T08:29:58.599Z,5.10
2017-10-11T08:32:26.163Z,5.50
2017-10-11T08:34:53.746Z,5.75
2017-10-11T08:37:21.286Z,5.28
2017-10-11T08:39:48.866Z,5.60
2017-10-11T08:42:16.438Z,4.90
2017-10-11T08:44:44.089Z,5.40
2017-10-11T08:47:11.690Z,4.68
2017-10-11T08:49:39.269Z,5.10
2017-10-11T08:52:07.639Z,5.70
2017-10-11T08:54:35.942Z,5.20
2017-10-11T08:57:03.850Z,4.90
2017-10-11T08:59:31.390Z,5.60
2017-10-11T09:01:58.930Z,4.37
2017-10-11T09:04:26.928Z,5.18
2017-10-11T09:06:54.901Z,4.68
2017-10-11T09:09:22.438Z,5.68
2017-10-11T09:11:50.764Z,5.00
2017-10-11T09:14:18.722Z,5.20
2017-10-11T09:16:46.398Z,5.20
2017-10-11T09:19:13.989Z,4.90
2017-10-11T09:21:41.525Z,5.30
2017-10-11T09:24:10.283Z,4.90
2017-10-11T09:26:37.825Z,5.25
2017-10-11T09:29:05.606Z,5.00
2017-10-11T09:31:33.142Z,5.20
2017-10-11T09:34:00.722Z,4.87
2017-10-11T09:36:28.262Z,4.53
2017-10-11T09:38:55.982Z,5.30
2017-10-11T09:41:23.529Z,5.03
2017-10-11T09:43:51.269Z,5.20
2017-10-11T09:46:18.986Z,5.50
2017-10-11T09:48:47.336Z,5.20
2017-10-11T09:51:14.880Z,5.07
2017-10-11T09:53:42.417Z,5.15
2017-10-11T09:56:13.817Z,5.03
2017-10-11T09:58:42.157Z,5.35
2017-10-11T10:01:10.122Z,4.50
2017-10-11T10:03:37.666Z,4.65
2017-10-11T10:06:05.206Z,4.43
2017-10-11T10:08:33.117Z,4.50
2017-10-11T10:11:00.656Z,5.37
2017-10-11T10:13:28.190Z,4.25
2017-10-11T10:16:02.246Z,4.18
2017-10-11T10:18:29.781Z,4.53
2017-10-11T10:20:57.441Z,4.70
2017-10-11T10:23:25.026Z,4.55
2017-10-11T10:25:52.562Z,3.92
2017-10-11T10:28:20.166Z,4.65
2017-10-11T10:30:47.700Z,4.50
2017-10-11T10:33:15.350Z,5.00
2017-10-11T10:35:42.889Z,4.45
2017-10-11T10:38:10.481Z,4.60
2017-10-11T10:40:38.020Z,5.10
2017-10-11T10:43:05.918Z,5.00
2017-10-11T10:45:33.459Z,4.70
2017-10-11T10:48:01.778Z,4.70
2017-10-11T10:50:29.405Z,4.87
2017-10-11T10:52:56.945Z,4.32
2017-10-11T10:55:24.817Z,4.55
2017-10-11T10:57:52.355Z,4.47
2017-10-11T11:00:20.664Z,4.65
2017-10-11T11:02:48.629Z,4.40
2017-10-11T11:05:16.186Z,4.80
2017-10-11T11:07:43.766Z,4.50
2017-10-11T11:10:11.842Z,4.95
2017-10-11T11:12:39.377Z,4.55
2017-10-11T11:15:06.916Z,4.55
2017-10-11T11:17:35.628Z,4.78
2017-10-11T11:20:03.167Z,4.75
2017-10-11T11:22:30.816Z,4.60
2017-10-11T11:24:59.126Z,5.20
2017-10-11T11:27:27.219Z,4.87
2017-10-11T11:29:54.754Z,4.53
2017-10-11T11:32:22.302Z,5.00
2017-10-11T11:34:49.895Z,5.18
2017-10-11T11:37:17.431Z,5.05
2017-10-11T11:39:45.370Z,4.70
2017-10-11T11:42:13.677Z,4.75
2017-10-11T11:44:41.218Z,5.03
2017-10-11T11:47:08.978Z,4.97
2017-10-11T11:49:41.410Z,4.40
2017-10-11T11:52:08.946Z,4.68
2017-10-11T11:54:36.485Z,4.80
2017-10-11T11:57:04.069Z,4.70
2017-10-11T11:59:31.629Z,4.65
2017-10-11T12:01:59.329Z,5.10
2017-10-11T12:04:26.874Z,7.35
2017-10-11T12:06:54.469Z,14.60
2017-10-11T12:09:22.789Z,8.32
2017-10-11T12:11:50.386Z,18.15
2017-10-11T12:14:17.924Z,7.60
2017-10-11T12:16:45.636Z,8.43
2017-10-11T12:19:13.175Z,7.30
2017-10-11T12:21:42.550Z,8.88
2017-10-11T12:24:10.105Z,5.82
2017-10-11T12:26:38.085Z,50.70
2017-10-11T12:29:07.076Z,9.75
2017-10-11T12:31:34.626Z,8.80
2017-10-11T12:34:02.206Z,7.78
2017-10-11T12:36:29.742Z,7.70
2017-10-11T12:38:57.606Z,12.60
2017-10-11T12:41:25.154Z,12.45
2017-10-11T12:43:52.692Z,9.98
2017-10-11T12:46:21.037Z,19.58
2017-10-11T12:48:48.613Z,8.05
2017-10-11T12:51:16.941Z,13.43
2017-10-11T12:53:44.532Z,14.85
2017-10-11T12:56:12.083Z,6.80
2017-10-11T12:58:39.955Z,19.40
2017-10-11T13:01:07.515Z,21.65
2017-10-11T13:03:35.105Z,10.20
2017-10-11T13:06:03.417Z,11.90
2017-10-11T13:08:31.005Z,10.85
2017-10-11T13:10:58.806Z,14.80
2017-10-11T13:13:27.663Z,20.70
2017-10-11T13:15:56.026Z,7.55
2017-10-11T13:18:23.618Z,10.55
2017-10-11T13:20:51.315Z,17.75
2017-10-11T13:23:18.870Z,9.45
2017-10-11T13:25:47.582Z,10.13
2017-10-11T13:28:15.429Z,14.00
2017-10-11T13:30:43.735Z,11.98
2017-10-11T13:33:11.393Z,12.45
2017-10-11T13:35:38.942Z,21.92
2017-10-11T13:38:06.490Z,14.63
2017-10-11T13:40:34.213Z,13.93
2017-10-11T13:43:01.758Z,9.80
2017-10-11T13:45:29.359Z,12.15
2017-10-11T13:47:56.972Z,16.60
2017-10-11T13:50:24.518Z,49.83
2017-10-11T13:52:52.131Z,23.15
2017-10-11T13:55:19.901Z,28.17
2017-10-11T13:57:48.211Z,7.90
2017-10-11T14:00:16.172Z,14.10
2017-10-11T14:02:43.726Z,15.68
2017-10-11T14:05:12.025Z,8.65
2017-10-11T14:07:39.607Z,5.97
2017-10-11T14:10:07.795Z,5.65
2017-10-11T14:12:36.455Z,6.35
2017-10-11T14:15:03.998Z,7.70
2017-10-11T14:17:31.633Z,7.90
2017-10-11T14:19:59.988Z,7.35
2017-10-11T14:22:27.606Z,7.90
2017-10-11T14:24:55.323Z,7.12
2017-10-11T14:27:22.914Z,6.00
2017-10-11T14:29:50.885Z,6.05
2017-10-11T14:32:18.425Z,5.50
2017-10-11T14:34:46.770Z,5.32
2017-10-11T14:37:14.318Z,4.87
2017-10-11T14:39:42.025Z,4.72
2017-10-11T14:42:10.342Z,4.87
2017-10-11T14:44:37.886Z,4.82
2017-10-11T14:47:05.894Z,4.35
2017-10-11T14:49:33.438Z,5.00
2017-10-11T14:52:00.986Z,5.20
2017-10-11T14:54:28.566Z,5.25
2017-10-11T14:56:56.122Z,13.68
2017-10-11T14:59:23.807Z,8.85
2017-10-11T15:01:51.346Z,8.63
2017-10-11T15:04:19.038Z,17.83
2017-10-11T15:06:46.577Z,7.18
2017-10-11T15:09:14.157Z,14.23
2017-10-11T15:11:41.713Z,6.10
2017-10-11T15:14:09.774Z,5.87
2017-10-11T15:16:37.310Z,5.00
2017-10-11T15:19:04.854Z,7.22
2017-10-11T15:21:32.759Z,8.05
2017-10-11T15:24:00.299Z,6.12
2017-10-11T15:26:27.884Z,8.32
2017-10-11T15:28:55.652Z,7.10
2017-10-11T15:31:23.233Z,8.25
2017-10-11T15:33:50.775Z,6.35
2017-10-11T15:36:18.397Z,6.75
2017-10-11T15:38:45.945Z,7.80
2017-10-11T15:41:13.666Z,6.00
2017-10-11T15:43:41.202Z,5.65
2017-10-11T15:46:08.763Z,6.20
2017-10-11T15:48:36.366Z,6.10
2017-10-11T15:51:04.264Z,6.00
2017-10-11T15:53:32.741Z,7.60
2017-10-11T15:56:00.378Z,7.82
2017-10-11T15:58:28.527Z,8.68
2017-10-11T16:00:56.146Z,7.00
2017-10-11T16:03:23.707Z,6.87
2017-10-11T16:05:51.304Z,6.07
2017-10-11T16:08:18.843Z,5.78
2017-10-11T16:10:46.899Z,5.60
2017-10-11T16:13:14.465Z,5.22
2017-10-11T16:15:42.038Z,5.40
2017-10-11T16:18:10.122Z,5.60
2017-10-11T16:20:37.790Z,5.85
2017-10-11T16:23:05.365Z,5.32
2017-10-11T16:25:33.098Z,5.60
2017-10-11T16:28:00.688Z,6.03
2017-10-11T16:30:28.286Z,5.50
2017-10-11T16:32:55.881Z,5.28
2017-10-11T16:35:23.651Z,5.10
2017-10-11T16:37:51.265Z,5.25
2017-10-11T16:40:18.886Z,5.50
2017-10-11T16:42:46.429Z,13.60
2017-10-11T16:45:13.979Z,8.77
2017-10-11T16:47:41.899Z,5.60
2017-10-11T16:50:10.215Z,11.95
2017-10-11T16:52:37.774Z,6.68
2017-10-11T16:55:05.770Z,5.20
2017-10-11T16:57:33.305Z,6.10
2017-10-11T17:00:00.847Z,16.67
2017-10-11T17:02:28.430Z,9.95
2017-10-11T17:04:56.010Z,6.90
2017-10-11T17:07:23.547Z,6.78
2017-10-11T17:09:51.682Z,6.65
2017-10-11T17:12:19.998Z,7.80
2017-10-11T17:14:47.541Z,13.38
2017-10-11T17:17:15.498Z,13.38
2017-10-11T17:19:43.807Z,6.75
2017-10-11T17:22:11.360Z,6.95
2017-10-11T17:24:39.027Z,5.72
2017-10-11T17:27:06.594Z,9.20
2017-10-11T17:29:34.137Z,6.18
2017-10-11T17:32:02.327Z,5.03
2017-10-11T17:34:30.876Z,6.25
2017-10-11T17:36:58.493Z,8.32
2017-10-11T17:39:26.041Z,6.15
2017-10-11T17:41:53.785Z,7.50
2017-10-11T17:44:21.345Z,10.45
2017-10-11T17:46:48.942Z,6.40
2017-10-11T17:49:16.493Z,6.10
2017-10-11T17:51:44.074Z,6.10
2017-10-11T17:54:11.614Z,6.60
2017-10-11T17:56:39.259Z,5.40
2017-10-11T17:59:06.816Z,5.70
2017-10-11T18:01:34.727Z,5.70
2017-10-11T18:04:02.266Z,6.25
2017-10-11T18:06:29.809Z,6.93
2017-10-11T18:08:57.410Z,6.12
2017-10-11T18:11:24.950Z,7.28
2017-10-11T18:13:52.668Z,5.70
2017-10-11T18:16:20.217Z,5.45
2017-10-11T18:18:49.636Z,5.55
2017-10-11T18:21:17.199Z,4.55
2017-10-11T18:23:44.758Z,4.93
2017-10-11T18:26:12.337Z,5.40
2017-10-11T18:28:40.038Z,5.90
2017-10-11T18:31:07.578Z,6.90
2017-10-11T18:33:35.759Z,6.00
2017-10-11T18:36:03.381Z,5.87
2017-10-11T18:38:30.925Z,5.80
2017-10-11T18:40:58.542Z,5.25
2017-10-11T18:43:26.129Z,4.85
2017-10-11T18:45:54.454Z,5.00
2017-10-11T18:48:22.098Z,4.95
2017-10-11T18:50:49.675Z,4.80
2017-10-11T18:53:17.343Z,4.15
2017-10-11T18:55:44.897Z,5.07
2017-10-11T18:58:12.490Z,5.43
2017-10-11T19:00:40.090Z,4.85
2017-10-11T19:03:07.707Z,4.87
2017-10-11T19:05:35.257Z,4.55
2017-10-11T19:08:03.203Z,4.60
2017-10-11T19:10:36.021Z,4.55
2017-10-11T19:13:03.630Z,4.85
2017-10-11T19:15:31.205Z,4.30
2017-10-11T19:18:22.658Z,3.90
2017-10-11T19:23:51.290Z,4.40
2017-10-11T19:34:59.201Z,4.07
2017-10-11T19:40:17.830Z,4.65
2017-10-11T19:42:46.516Z,4.03
2017-10-11T19:45:21.275Z,4.37
2017-10-11T19:47:48.949Z,4.30
2017-10-11T19:53:24.601Z,3.62
2017-10-11T20:01:53.548Z,4.30
2017-10-11T20:04:21.130Z,4.15
2017-10-11T20:06:48.976Z,4.50
2017-10-11T20:09:18.099Z,4.03
2017-10-11T20:11:48.697Z,3.95
2017-10-11T20:14:16.494Z,4.05
2017-10-11T20:20:12.535Z,3.55
2017-10-11T20:22:45.139Z,4.55
2017-10-11T20:28:05.961Z,3.80
2017-10-11T20:30:40.362Z,4.60
2017-10-11T20:33:14.138Z,4.00
2017-10-11T20:55:53.996Z,3.80
2017-10-11T20:58:21.878Z,3.90
2017-10-11T21:00:49.431Z,3.65
2017-10-11T21:03:16.991Z,3.65
2017-10-11T21:05:44.622Z,3.70
2017-10-11T21:08:12.166Z,3.65
2017-10-11T21:10:39.801Z,3.50
2017-10-11T21:13:07.360Z,3.20
2017-10-11T21:15:35.709Z,3.80
2017-10-11T21:18:04.086Z,3.40
2017-10-11T21:20:33.147Z,3.03
2017-10-11T21:23:00.696Z,3.08
2017-10-11T21:25:28.238Z,3.60
2017-10-11T21:27:55.822Z,3.35
2017-10-11T21:30:23.458Z,3.40
2017-10-11T21:32:51.001Z,3.40
2017-10-11T21:35:19.071Z,3.20
2017-10-11T21:37:46.623Z,3.35
2017-10-11T21:40:14.167Z,3.40
2017-10-11T21:42:42.918Z,3.40
2017-10-11T21:45:10.457Z,3.50
2017-10-11T21:47:38.025Z,3.95
2017-10-11T21:50:05.798Z,3.97
2017-10-11T21:52:33.342Z,3.60
2017-10-11T21:55:00.978Z,3.70
2017-10-11T21:57:28.638Z,3.83
2017-10-11T21:59:56.184Z,3.65
2017-10-11T22:02:23.726Z,3.45
2017-10-11T22:04:52.070Z,3.45
2017-10-11T22:07:20.131Z,3.72
2017-10-11T22:09:47.668Z,3.85
2017-10-11T22:12:15.970Z,3.60
2017-10-11T22:14:43.546Z,3.80
2017-10-11T22:17:11.086Z,3.40
2017-10-11T22:19:39.331Z,4.00
2017-10-11T22:22:06.877Z,3.70
2017-10-11T22:24:34.421Z,3.83
2017-10-11T22:27:03.372Z,3.70
2017-10-11T22:29:30.941Z,3.70
2017-10-11T22:31:58.480Z,3.50
2017-10-11T22:34:26.057Z,3.62
2017-10-11T22:36:53.586Z,3.30
2017-10-11T22:39:24.970Z,3.90
2017-10-11T22:41:52.505Z,3.47
2017-10-11T22:44:20.810Z,3.55
2017-10-11T22:46:48.528Z,3.60
2017-10-11T22:49:16.107Z,4.18
2017-10-11T22:51:43.654Z,3.78
2017-10-11T22:54:11.229Z,3.25
2017-10-11T22:56:38.805Z,3.30
2017-10-11T22:59:06.381Z,3.83
2017-10-11T23:01:34.643Z,3.35
2017-10-11T23:04:02.193Z,3.30
2017-10-11T23:06:29.735Z,3.70
2017-10-11T23:08:57.308Z,3.70
2017-10-11T23:11:24.845Z,3.90
2017-10-11T23:13:52.426Z,3.60
2017-10-11T23:16:20.742Z,3.55
2017-10-11T23:18:48.513Z,3.55
2017-10-11T23:21:16.312Z,3.70
2017-10-11T23:23:43.901Z,4.65
2017-10-11T23:26:11.441Z,4.18
2017-10-11T23:28:39.170Z,4.22
2017-10-11T23:31:07.515Z,4.00
2017-10-11T23:33:35.094Z,3.70
2017-10-11T23:36:03.042Z,3.72
2017-10-11T23:38:30.581Z,3.72
2017-10-11T23:40:58.166Z,4.10
2017-10-11T23:43:25.708Z,4.10
2017-10-11T23:45:53.688Z,3.90
2017-10-11T23:48:21.226Z,4.00
2017-10-11T23:50:48.773Z,4.15
2017-10-11T23:53:16.547Z,3.80
2017-10-11T23:55:44.125Z,4.10
2017-10-11T23:58:11.656Z,4.43
